CTN850 LDZA-EYVI
Flight info
| Callsign | CTN850 |
|---|---|
| Flight time | 1h 43m |
| Altitude | 37000 |
| Route | KOPRY DCT XOMBA DCT MOCON DCT MEBAN M985 KOTEK DCT ETUBO M977 BESOT DCT VABER DCT IRKAL |
| Aircraft | A319/M-SDE3FGHIRWY/LB1 |
Departure
| Time | 2026-04-27 16:15 |
|---|---|
| Airport | Zagreb Franjo Tuđman International Airport (LDZA) |
Arrival
| Time | 2026-04-27 17:59 |
|---|---|
| Airport | Vilnius International Airport (EYVI) |
| Time | Latitude | Longitude | Altitude | Speed | Heading |
|---|---|---|---|---|---|
| 2026-04-27 15:51 | 45.74177 | 16.07840 | 359 ft | 0 kts | 136° |
| 2026-04-27 16:06 | 45.74184 | 16.07829 | 363 ft | 4 kts | 136° |
| 2026-04-27 16:07 | 45.74204 | 16.07803 | 364 ft | 4 kts | 136° |
| 2026-04-27 16:07 | 45.74222 | 16.07778 | 362 ft | 2 kts | 136° |
| 2026-04-27 16:07 | 45.74239 | 16.07758 | 361 ft | 4 kts | 167° |
| 2026-04-27 16:07 | 45.74257 | 16.07765 | 359 ft | 4 kts | 226° |
| 2026-04-27 16:08 | 45.74262 | 16.07773 | 359 ft | 0 kts | 226° |
| 2026-04-27 16:10 | 45.74228 | 16.07721 | 359 ft | 9 kts | 226° |
| 2026-04-27 16:11 | 45.74176 | 16.07643 | 359 ft | 13 kts | 226° |
| 2026-04-27 16:11 | 45.74062 | 16.07461 | 359 ft | 10 kts | 246° |
| 2026-04-27 16:12 | 45.74142 | 16.07304 | 363 ft | 11 kts | 317° |
| 2026-04-27 16:12 | 45.74199 | 16.07228 | 359 ft | 11 kts | 316° |
| 2026-04-27 16:12 | 45.74119 | 16.07008 | 359 ft | 18 kts | 227° |
| 2026-04-27 16:13 | 45.74027 | 16.06869 | 363 ft | 21 kts | 226° |
| 2026-04-27 16:13 | 45.73817 | 16.06550 | 362 ft | 22 kts | 226° |
| 2026-04-27 16:13 | 45.73744 | 16.06436 | 359 ft | 12 kts | 236° |
| 2026-04-27 16:14 | 45.73830 | 16.06277 | 364 ft | 10 kts | 318° |
| 2026-04-27 16:14 | 45.73982 | 16.06404 | 361 ft | 42 kts | 46° |
| 2026-04-27 16:15 | 45.75027 | 16.08004 | 554 ft | 149 kts | 49° |
| 2026-04-27 16:15 | 45.76437 | 16.10120 | 1844 ft | 146 kts | 48° |
| 2026-04-27 16:16 | 45.77834 | 16.12251 | 3079 ft | 145 kts | 49° |
| 2026-04-27 16:16 | 45.79292 | 16.14475 | 3952 ft | 171 kts | 47° |
| 2026-04-27 16:17 | 45.81136 | 16.17282 | 4582 ft | 217 kts | 45° |
| 2026-04-27 16:17 | 45.83438 | 16.20791 | 5404 ft | 265 kts | 44° |
| 2026-04-27 16:18 | 45.86195 | 16.24998 | 6357 ft | 311 kts | 44° |
| 2026-04-27 16:18 | 45.89225 | 16.29655 | 7985 ft | 325 kts | 45° |
| 2026-04-27 16:19 | 45.90647 | 16.32214 | 8845 ft | 331 kts | 51° |
| 2026-04-27 16:19 | 45.92037 | 16.34870 | 9727 ft | 336 kts | 51° |
| 2026-04-27 16:20 | 45.96344 | 16.43064 | 12174 ft | 348 kts | 50° |
| 2026-04-27 16:20 | 45.97815 | 16.45862 | 12974 ft | 353 kts | 50° |
| 2026-04-27 16:20 | 46.00799 | 16.51546 | 14513 ft | 359 kts | 50° |
| 2026-04-27 16:21 | 46.02311 | 16.54429 | 15233 ft | 362 kts | 50° |
| 2026-04-27 16:21 | 46.06897 | 16.63216 | 17380 ft | 370 kts | 50° |
| 2026-04-27 16:22 | 46.08449 | 16.66192 | 18095 ft | 373 kts | 50° |
| 2026-04-27 16:22 | 46.11582 | 16.72208 | 19352 ft | 378 kts | 50° |
| 2026-04-27 16:22 | 46.13161 | 16.75250 | 19947 ft | 381 kts | 50° |
| 2026-04-27 16:23 | 46.14751 | 16.78322 | 20575 ft | 383 kts | 50° |
| 2026-04-27 16:23 | 46.17964 | 16.84534 | 21752 ft | 389 kts | 50° |
| 2026-04-27 16:23 | 46.19591 | 16.87681 | 22348 ft | 392 kts | 50° |
| 2026-04-27 16:24 | 46.21206 | 16.90805 | 22942 ft | 395 kts | 50° |
| 2026-04-27 16:24 | 46.24999 | 16.96557 | 24006 ft | 394 kts | 33° |
| 2026-04-27 16:25 | 46.29763 | 17.00300 | 24931 ft | 394 kts | 22° |
| 2026-04-27 16:25 | 46.32409 | 17.02155 | 25438 ft | 396 kts | 22° |
| 2026-04-27 16:26 | 46.37401 | 17.05674 | 26338 ft | 401 kts | 22° |
| 2026-04-27 16:26 | 46.42406 | 17.09218 | 27209 ft | 405 kts | 22° |
| 2026-04-27 16:27 | 46.47546 | 17.12861 | 28094 ft | 410 kts | 22° |
| 2026-04-27 16:27 | 46.55234 | 17.18322 | 29379 ft | 416 kts | 22° |
| 2026-04-27 16:28 | 46.60462 | 17.22047 | 30195 ft | 420 kts | 22° |
| 2026-04-27 16:28 | 46.65734 | 17.25810 | 30839 ft | 424 kts | 22° |
| 2026-04-27 16:29 | 46.73718 | 17.31528 | 31874 ft | 428 kts | 22° |
| 2026-04-27 16:30 | 46.79055 | 17.35359 | 32737 ft | 426 kts | 22° |
| 2026-04-27 16:30 | 46.84355 | 17.39168 | 33606 ft | 424 kts | 21° |
| 2026-04-27 16:31 | 46.92261 | 17.44860 | 34804 ft | 421 kts | 21° |
| 2026-04-27 16:31 | 46.93876 | 17.46025 | 35008 ft | 421 kts | 21° |
| 2026-04-27 16:32 | 46.99138 | 17.49833 | 35623 ft | 422 kts | 21° |
| 2026-04-27 16:32 | 47.01777 | 17.51747 | 35909 ft | 423 kts | 21° |
| 2026-04-27 16:33 | 47.07058 | 17.55583 | 36469 ft | 424 kts | 22° |
| 2026-04-27 16:33 | 47.09700 | 17.57509 | 36764 ft | 424 kts | 21° |
| 2026-04-27 16:33 | 47.12342 | 17.59436 | 37035 ft | 425 kts | 21° |
| 2026-04-27 16:33 | 47.14997 | 17.61375 | 37154 ft | 425 kts | 21° |
| 2026-04-27 16:34 | 47.20293 | 17.65241 | 37173 ft | 428 kts | 21° |
| 2026-04-27 16:34 | 47.25673 | 17.69172 | 37170 ft | 434 kts | 22° |
| 2026-04-27 16:35 | 47.31087 | 17.73138 | 37168 ft | 435 kts | 21° |
| 2026-04-27 16:36 | 47.39206 | 17.79114 | 37171 ft | 435 kts | 22° |
| 2026-04-27 16:36 | 47.44618 | 17.83102 | 37179 ft | 435 kts | 22° |
| 2026-04-27 16:37 | 47.50030 | 17.87098 | 37178 ft | 435 kts | 22° |
| 2026-04-27 16:37 | 47.55439 | 17.91103 | 37178 ft | 435 kts | 22° |
| 2026-04-27 16:38 | 47.60844 | 17.95127 | 37179 ft | 435 kts | 22° |
| 2026-04-27 16:38 | 47.66213 | 17.99137 | 37199 ft | 435 kts | 22° |
| 2026-04-27 16:39 | 47.71629 | 18.03180 | 37187 ft | 436 kts | 22° |
| 2026-04-27 16:39 | 47.77042 | 18.07246 | 37189 ft | 437 kts | 22° |
| 2026-04-27 16:40 | 47.82418 | 18.11505 | 37189 ft | 438 kts | 24° |
| 2026-04-27 16:40 | 47.87752 | 18.15860 | 37204 ft | 438 kts | 24° |
| 2026-04-27 16:41 | 47.93107 | 18.20213 | 37195 ft | 438 kts | 23° |
| 2026-04-27 16:41 | 47.98460 | 18.24534 | 37192 ft | 437 kts | 23° |
| 2026-04-27 16:42 | 48.03813 | 18.28854 | 37190 ft | 437 kts | 23° |
| 2026-04-27 16:42 | 48.09161 | 18.33187 | 37210 ft | 437 kts | 23° |
| 2026-04-27 16:43 | 48.14504 | 18.37529 | 37204 ft | 437 kts | 23° |
| 2026-04-27 16:43 | 48.19845 | 18.41886 | 37198 ft | 437 kts | 23° |
| 2026-04-27 16:44 | 48.25174 | 18.46235 | 37218 ft | 436 kts | 23° |
| 2026-04-27 16:44 | 48.30503 | 18.50600 | 37201 ft | 436 kts | 23° |
| 2026-04-27 16:45 | 48.35827 | 18.54969 | 37192 ft | 436 kts | 23° |
| 2026-04-27 16:45 | 48.41153 | 18.59359 | 37180 ft | 436 kts | 23° |
| 2026-04-27 16:46 | 48.46474 | 18.63740 | 37201 ft | 436 kts | 23° |
| 2026-04-27 16:46 | 48.51796 | 18.68135 | 37193 ft | 436 kts | 23° |
| 2026-04-27 16:47 | 48.57114 | 18.72536 | 37185 ft | 436 kts | 23° |
| 2026-04-27 16:47 | 48.62424 | 18.76948 | 37183 ft | 436 kts | 23° |
| 2026-04-27 16:48 | 48.67699 | 18.81347 | 37198 ft | 435 kts | 23° |
| 2026-04-27 16:48 | 48.73034 | 18.85803 | 37189 ft | 435 kts | 23° |
| 2026-04-27 16:49 | 48.80952 | 18.92432 | 37181 ft | 435 kts | 23° |
| 2026-04-27 16:49 | 48.86250 | 18.96878 | 37203 ft | 435 kts | 23° |
| 2026-04-27 16:50 | 48.91546 | 19.01337 | 37191 ft | 435 kts | 23° |
| 2026-04-27 16:50 | 48.96849 | 19.05810 | 37189 ft | 435 kts | 23° |
| 2026-04-27 16:51 | 49.01283 | 19.09557 | 37173 ft | 435 kts | 23° |
| 2026-04-27 16:51 | 49.06576 | 19.14039 | 37188 ft | 435 kts | 23° |
| 2026-04-27 16:52 | 49.11868 | 19.18537 | 37185 ft | 436 kts | 23° |
| 2026-04-27 16:52 | 49.16928 | 19.23732 | 37177 ft | 447 kts | 36° |
| 2026-04-27 16:53 | 49.21487 | 19.30237 | 37179 ft | 448 kts | 37° |
| 2026-04-27 16:53 | 49.26045 | 19.36738 | 37201 ft | 448 kts | 37° |
| 2026-04-27 16:54 | 49.30575 | 19.43207 | 37190 ft | 448 kts | 37° |
| 2026-04-27 16:54 | 49.35133 | 19.49746 | 37194 ft | 449 kts | 37° |
| 2026-04-27 16:55 | 49.39688 | 19.56286 | 37202 ft | 449 kts | 37° |
| 2026-04-27 16:55 | 49.44331 | 19.62629 | 37201 ft | 442 kts | 29° |
| 2026-04-27 16:56 | 49.49671 | 19.66934 | 37197 ft | 428 kts | 13° |
| 2026-04-27 16:56 | 49.55291 | 19.69958 | 37193 ft | 428 kts | 13° |
| 2026-04-27 16:57 | 49.60911 | 19.72993 | 37192 ft | 428 kts | 13° |
| 2026-04-27 16:57 | 49.66531 | 19.76048 | 37212 ft | 428 kts | 13° |
| 2026-04-27 16:58 | 49.72151 | 19.79115 | 37202 ft | 429 kts | 13° |
| 2026-04-27 16:58 | 49.77778 | 19.82165 | 37196 ft | 428 kts | 12° |
| 2026-04-27 16:59 | 49.83451 | 19.84960 | 37175 ft | 427 kts | 11° |
| 2026-04-27 16:59 | 49.89134 | 19.87642 | 37200 ft | 427 kts | 11° |
| 2026-04-27 17:00 | 49.97659 | 19.91754 | 37191 ft | 428 kts | 11° |
| 2026-04-27 17:01 | 50.03337 | 19.94553 | 37193 ft | 428 kts | 11° |
| 2026-04-27 17:01 | 50.09045 | 19.97371 | 37218 ft | 428 kts | 11° |
| 2026-04-27 17:02 | 50.14691 | 20.00163 | 37206 ft | 428 kts | 11° |
| 2026-04-27 17:02 | 50.20346 | 20.02957 | 37202 ft | 428 kts | 11° |
| 2026-04-27 17:03 | 50.26030 | 20.05769 | 37202 ft | 428 kts | 11° |
| 2026-04-27 17:03 | 50.31717 | 20.08582 | 37218 ft | 429 kts | 11° |
| 2026-04-27 17:04 | 50.37404 | 20.11413 | 37211 ft | 429 kts | 12° |
| 2026-04-27 17:04 | 50.43087 | 20.14259 | 37209 ft | 429 kts | 12° |
| 2026-04-27 17:05 | 50.48775 | 20.17106 | 37207 ft | 429 kts | 11° |
| 2026-04-27 17:05 | 50.54465 | 20.19957 | 37223 ft | 429 kts | 12° |
| 2026-04-27 17:06 | 50.60153 | 20.22814 | 37221 ft | 429 kts | 12° |
| 2026-04-27 17:06 | 50.65639 | 20.26755 | 37215 ft | 442 kts | 28° |
| 2026-04-27 17:07 | 50.70395 | 20.33091 | 37205 ft | 450 kts | 36° |
| 2026-04-27 17:07 | 50.75050 | 20.39686 | 37231 ft | 450 kts | 36° |
| 2026-04-27 17:08 | 50.79720 | 20.46275 | 37221 ft | 450 kts | 35° |
| 2026-04-27 17:08 | 50.84358 | 20.52851 | 37211 ft | 451 kts | 36° |
| 2026-04-27 17:09 | 50.89012 | 20.59496 | 37213 ft | 451 kts | 36° |
| 2026-04-27 17:09 | 50.93671 | 20.66160 | 37232 ft | 451 kts | 36° |
| 2026-04-27 17:10 | 50.98330 | 20.72835 | 37235 ft | 451 kts | 36° |
| 2026-04-27 17:10 | 51.02978 | 20.79531 | 37228 ft | 451 kts | 36° |
| 2026-04-27 17:11 | 51.07627 | 20.86235 | 37220 ft | 451 kts | 36° |
| 2026-04-27 17:11 | 51.14603 | 20.96308 | 37230 ft | 451 kts | 36° |
| 2026-04-27 17:12 | 51.21575 | 21.06417 | 37214 ft | 451 kts | 36° |
| 2026-04-27 17:13 | 51.26209 | 21.13169 | 37201 ft | 452 kts | 36° |
| 2026-04-27 17:13 | 51.30849 | 21.19945 | 37196 ft | 452 kts | 36° |
| 2026-04-27 17:14 | 51.35481 | 21.26730 | 37217 ft | 452 kts | 36° |
| 2026-04-27 17:14 | 51.40109 | 21.33546 | 37210 ft | 452 kts | 36° |
| 2026-04-27 17:15 | 51.44732 | 21.40360 | 37201 ft | 452 kts | 36° |
| 2026-04-27 17:15 | 51.49332 | 21.47146 | 37197 ft | 452 kts | 36° |
| 2026-04-27 17:16 | 51.53953 | 21.54000 | 37194 ft | 452 kts | 37° |
| 2026-04-27 17:16 | 51.58567 | 21.60874 | 37187 ft | 452 kts | 37° |
| 2026-04-27 17:17 | 51.63178 | 21.67750 | 37185 ft | 452 kts | 37° |
| 2026-04-27 17:17 | 51.67781 | 21.74651 | 37186 ft | 452 kts | 37° |
| 2026-04-27 17:18 | 51.74677 | 21.85001 | 37219 ft | 450 kts | 37° |
| 2026-04-27 17:18 | 51.79252 | 21.91884 | 37206 ft | 449 kts | 37° |
| 2026-04-27 17:19 | 51.83809 | 21.98769 | 37203 ft | 448 kts | 37° |
| 2026-04-27 17:19 | 51.88358 | 22.05668 | 37197 ft | 448 kts | 37° |
| 2026-04-27 17:20 | 51.92865 | 22.12504 | 37210 ft | 447 kts | 37° |
| 2026-04-27 17:20 | 51.97431 | 22.19469 | 37199 ft | 448 kts | 37° |
| 2026-04-27 17:21 | 52.01960 | 22.26396 | 37193 ft | 448 kts | 37° |
| 2026-04-27 17:21 | 52.06490 | 22.33334 | 37186 ft | 448 kts | 37° |
| 2026-04-27 17:22 | 52.11017 | 22.40285 | 37209 ft | 447 kts | 37° |
| 2026-04-27 17:22 | 52.15536 | 22.47255 | 37195 ft | 447 kts | 37° |
| 2026-04-27 17:23 | 52.20044 | 22.54237 | 37184 ft | 447 kts | 37° |
| 2026-04-27 17:23 | 52.24552 | 22.61232 | 37179 ft | 447 kts | 37° |
| 2026-04-27 17:24 | 52.29063 | 22.68240 | 37180 ft | 448 kts | 37° |
| 2026-04-27 17:24 | 52.33573 | 22.75271 | 37199 ft | 448 kts | 38° |
| 2026-04-27 17:25 | 52.38074 | 22.82325 | 37185 ft | 448 kts | 38° |
| 2026-04-27 17:25 | 52.42609 | 22.89315 | 37179 ft | 444 kts | 33° |
| 2026-04-27 17:26 | 52.47857 | 22.94212 | 37176 ft | 428 kts | 13° |
| 2026-04-27 17:26 | 52.53601 | 22.95962 | 37179 ft | 415 kts | 355° |
| 2026-04-27 17:27 | 52.59359 | 22.95754 | 37178 ft | 414 kts | 354° |
| 2026-04-27 17:27 | 52.65128 | 22.95532 | 37172 ft | 415 kts | 354° |
| 2026-04-27 17:28 | 52.70892 | 22.95293 | 37170 ft | 415 kts | 354° |
| 2026-04-27 17:29 | 52.79558 | 22.94942 | 37194 ft | 415 kts | 354° |
| 2026-04-27 17:29 | 52.85335 | 22.94718 | 37187 ft | 415 kts | 354° |
| 2026-04-27 17:30 | 52.91118 | 22.94533 | 37185 ft | 417 kts | 358° |
| 2026-04-27 17:30 | 52.99780 | 22.97116 | 37184 ft | 424 kts | 7° |
| 2026-04-27 17:31 | 53.05533 | 22.99166 | 37181 ft | 422 kts | 6° |
| 2026-04-27 17:31 | 53.11280 | 23.01219 | 37176 ft | 422 kts | 6° |
| 2026-04-27 17:32 | 53.19893 | 23.04282 | 37170 ft | 422 kts | 6° |
| 2026-04-27 17:33 | 53.25641 | 23.06338 | 37172 ft | 422 kts | 6° |
| 2026-04-27 17:33 | 53.31381 | 23.08394 | 37200 ft | 422 kts | 6° |
| 2026-04-27 17:34 | 53.37116 | 23.10467 | 37195 ft | 422 kts | 6° |
| 2026-04-27 17:34 | 53.42852 | 23.12536 | 37180 ft | 421 kts | 6° |
| 2026-04-27 17:35 | 53.48585 | 23.14596 | 37175 ft | 421 kts | 6° |
| 2026-04-27 17:35 | 53.53345 | 23.16328 | 37202 ft | 421 kts | 6° |
| 2026-04-27 17:36 | 53.60001 | 23.18755 | 37195 ft | 421 kts | 6° |
| 2026-04-27 17:36 | 53.65722 | 23.20832 | 37088 ft | 419 kts | 6° |
| 2026-04-27 17:36 | 53.68553 | 23.21868 | 36822 ft | 415 kts | 6° |
| 2026-04-27 17:37 | 53.70457 | 23.22568 | 36649 ft | 413 kts | 6° |
| 2026-04-27 17:37 | 53.73259 | 23.23596 | 36389 ft | 412 kts | 6° |
| 2026-04-27 17:37 | 53.76059 | 23.24622 | 36090 ft | 411 kts | 6° |
| 2026-04-27 17:37 | 53.78863 | 23.25648 | 35479 ft | 411 kts | 6° |
| 2026-04-27 17:38 | 53.81637 | 23.26669 | 34987 ft | 407 kts | 5° |
| 2026-04-27 17:38 | 53.84384 | 23.27682 | 34456 ft | 404 kts | 5° |
| 2026-04-27 17:38 | 53.87126 | 23.28694 | 33882 ft | 401 kts | 5° |
| 2026-04-27 17:38 | 53.89840 | 23.29699 | 33307 ft | 397 kts | 5° |
| 2026-04-27 17:39 | 53.92523 | 23.30694 | 32774 ft | 393 kts | 5° |
| 2026-04-27 17:39 | 53.95179 | 23.31678 | 32218 ft | 389 kts | 5° |
| 2026-04-27 17:39 | 53.97815 | 23.32655 | 31673 ft | 386 kts | 4° |
| 2026-04-27 17:39 | 54.00424 | 23.33619 | 31131 ft | 382 kts | 4° |
| 2026-04-27 17:40 | 54.03014 | 23.34579 | 30623 ft | 380 kts | 4° |
| 2026-04-27 17:40 | 54.05550 | 23.35517 | 30065 ft | 376 kts | 4° |
| 2026-04-27 17:40 | 54.08096 | 23.36464 | 29516 ft | 371 kts | 4° |
| 2026-04-27 17:40 | 54.10596 | 23.37402 | 29015 ft | 365 kts | 4° |
| 2026-04-27 17:41 | 54.13059 | 23.38329 | 28515 ft | 360 kts | 4° |
| 2026-04-27 17:41 | 54.15506 | 23.39347 | 28020 ft | 360 kts | 8° |
| 2026-04-27 17:41 | 54.17797 | 23.41046 | 27498 ft | 369 kts | 19° |
| 2026-04-27 17:41 | 54.19921 | 23.43625 | 26919 ft | 382 kts | 31° |
| 2026-04-27 17:42 | 54.21731 | 23.47052 | 26329 ft | 398 kts | 44° |
| 2026-04-27 17:42 | 54.23223 | 23.51093 | 25726 ft | 403 kts | 48° |
| 2026-04-27 17:42 | 54.24683 | 23.55180 | 25143 ft | 402 kts | 48° |
| 2026-04-27 17:42 | 54.26146 | 23.59273 | 24554 ft | 403 kts | 47° |
| 2026-04-27 17:43 | 54.27607 | 23.63356 | 23989 ft | 402 kts | 47° |
| 2026-04-27 17:43 | 54.29065 | 23.67432 | 23390 ft | 401 kts | 47° |
| 2026-04-27 17:43 | 54.30514 | 23.71483 | 22846 ft | 398 kts | 47° |
| 2026-04-27 17:43 | 54.31956 | 23.75516 | 22315 ft | 395 kts | 48° |
| 2026-04-27 17:44 | 54.33385 | 23.79522 | 21793 ft | 393 kts | 48° |
| 2026-04-27 17:44 | 54.34808 | 23.83514 | 21253 ft | 391 kts | 48° |
| 2026-04-27 17:44 | 54.36224 | 23.87482 | 20711 ft | 390 kts | 48° |
| 2026-04-27 17:44 | 54.37635 | 23.91445 | 20151 ft | 389 kts | 49° |
| 2026-04-27 17:45 | 54.39040 | 23.95401 | 19586 ft | 388 kts | 49° |
| 2026-04-27 17:45 | 54.40441 | 23.99358 | 19013 ft | 388 kts | 49° |
| 2026-04-27 17:45 | 54.41839 | 24.03317 | 18430 ft | 388 kts | 50° |
| 2026-04-27 17:45 | 54.43241 | 24.07291 | 17787 ft | 389 kts | 50° |
| 2026-04-27 17:46 | 54.44629 | 24.11249 | 17284 ft | 385 kts | 50° |
| 2026-04-27 17:46 | 54.46004 | 24.15177 | 16783 ft | 381 kts | 50° |
| 2026-04-27 17:46 | 54.47364 | 24.19064 | 16204 ft | 379 kts | 51° |
| 2026-04-27 17:46 | 54.48522 | 24.23154 | 15605 ft | 384 kts | 63° |
| 2026-04-27 17:47 | 54.49223 | 24.27578 | 15100 ft | 381 kts | 70° |
| 2026-04-27 17:47 | 54.49639 | 24.30504 | 14762 ft | 379 kts | 70° |
| 2026-04-27 17:47 | 54.50479 | 24.36369 | 14085 ft | 375 kts | 70° |
| 2026-04-27 17:47 | 54.51106 | 24.40704 | 13630 ft | 370 kts | 70° |
| 2026-04-27 17:48 | 54.51710 | 24.44902 | 13459 ft | 352 kts | 70° |
| 2026-04-27 17:48 | 54.52281 | 24.48889 | 13322 ft | 337 kts | 70° |
| 2026-04-27 17:48 | 54.52836 | 24.52740 | 13181 ft | 326 kts | 70° |
| 2026-04-27 17:48 | 54.53374 | 24.56460 | 13028 ft | 315 kts | 70° |
| 2026-04-27 17:49 | 54.53898 | 24.60091 | 12757 ft | 310 kts | 70° |
| 2026-04-27 17:49 | 54.54414 | 24.63671 | 12312 ft | 307 kts | 70° |
| 2026-04-27 17:49 | 54.54926 | 24.67221 | 11845 ft | 304 kts | 70° |
| 2026-04-27 17:49 | 54.55431 | 24.70727 | 11382 ft | 300 kts | 71° |
| 2026-04-27 17:50 | 54.55933 | 24.74218 | 10984 ft | 299 kts | 71° |
| 2026-04-27 17:50 | 54.56909 | 24.81141 | 10269 ft | 295 kts | 72° |
| 2026-04-27 17:50 | 54.57387 | 24.84571 | 9908 ft | 293 kts | 72° |
| 2026-04-27 17:51 | 54.57863 | 24.87978 | 9528 ft | 291 kts | 72° |
| 2026-04-27 17:51 | 54.58015 | 24.91403 | 9348 ft | 284 kts | 94° |
| 2026-04-27 17:51 | 54.57444 | 24.94597 | 9078 ft | 279 kts | 117° |
| 2026-04-27 17:51 | 54.56226 | 24.97182 | 8584 ft | 280 kts | 141° |
| 2026-04-27 17:52 | 54.54591 | 24.99003 | 8084 ft | 280 kts | 149° |
| 2026-04-27 17:52 | 54.52926 | 25.00745 | 7581 ft | 281 kts | 149° |
| 2026-04-27 17:52 | 54.51257 | 25.02505 | 7067 ft | 281 kts | 148° |
| 2026-04-27 17:52 | 54.49623 | 25.04346 | 6582 ft | 280 kts | 140° |
| 2026-04-27 17:53 | 54.48305 | 25.06746 | 6073 ft | 273 kts | 122° |
| 2026-04-27 17:53 | 54.47421 | 25.09575 | 5556 ft | 266 kts | 108° |
| 2026-04-27 17:53 | 54.46746 | 25.12498 | 5100 ft | 259 kts | 104° |
| 2026-04-27 17:53 | 54.46634 | 25.15335 | 5010 ft | 221 kts | 66° |
| 2026-04-27 17:54 | 54.47359 | 25.17290 | 4999 ft | 176 kts | 32° |
| 2026-04-27 17:54 | 54.48368 | 25.18220 | 4696 ft | 162 kts | 16° |
| 2026-04-27 17:54 | 54.49416 | 25.18927 | 4124 ft | 162 kts | 16° |
| 2026-04-27 17:54 | 54.50460 | 25.19639 | 3641 ft | 159 kts | 16° |
| 2026-04-27 17:55 | 54.51463 | 25.20328 | 3228 ft | 151 kts | 16° |
| 2026-04-27 17:55 | 54.52418 | 25.20986 | 2885 ft | 146 kts | 16° |
| 2026-04-27 17:55 | 54.53332 | 25.21616 | 2623 ft | 134 kts | 15° |
| 2026-04-27 17:55 | 54.54157 | 25.22186 | 2430 ft | 124 kts | 14° |
| 2026-04-27 17:56 | 54.54943 | 25.22727 | 2284 ft | 120 kts | 14° |
| 2026-04-27 17:56 | 54.55702 | 25.23249 | 2121 ft | 118 kts | 14° |
| 2026-04-27 17:56 | 54.56474 | 25.23781 | 1952 ft | 118 kts | 15° |
| 2026-04-27 17:56 | 54.57237 | 25.24307 | 1785 ft | 118 kts | 15° |
| 2026-04-27 17:57 | 54.57989 | 25.24825 | 1614 ft | 118 kts | 15° |
| 2026-04-27 17:57 | 54.58752 | 25.25353 | 1430 ft | 118 kts | 15° |
| 2026-04-27 17:57 | 54.59516 | 25.25882 | 1256 ft | 119 kts | 16° |
| 2026-04-27 17:57 | 54.60296 | 25.26418 | 1096 ft | 119 kts | 15° |
| 2026-04-27 17:58 | 54.61055 | 25.26938 | 942 ft | 119 kts | 18° |
| 2026-04-27 17:58 | 54.61827 | 25.27474 | 768 ft | 119 kts | 18° |
| 2026-04-27 17:58 | 54.62587 | 25.28005 | 622 ft | 117 kts | 18° |
| 2026-04-27 17:58 | 54.63222 | 25.28439 | 614 ft | 70 kts | 22° |
| 2026-04-27 17:59 | 54.63443 | 25.28594 | 614 ft | 21 kts | 21° |
| 2026-04-27 17:59 | 54.63587 | 25.28693 | 614 ft | 23 kts | 22° |
| 2026-04-27 17:59 | 54.63726 | 25.28759 | 611 ft | 20 kts | 4° |
| 2026-04-27 17:59 | 54.63813 | 25.28743 | 620 ft | 9 kts | 353° |
| 2026-04-27 18:00 | 54.63874 | 25.28734 | 628 ft | 9 kts | 356° |
| 2026-04-27 18:00 | 54.63937 | 25.28725 | 623 ft | 10 kts | 355° |
| 2026-04-27 18:00 | 54.64026 | 25.28710 | 615 ft | 14 kts | 354° |
| 2026-04-27 18:00 | 54.64129 | 25.28691 | 623 ft | 15 kts | 354° |
| 2026-04-27 18:01 | 54.64238 | 25.28673 | 620 ft | 16 kts | 355° |
| 2026-04-27 18:01 | 54.64353 | 25.28654 | 620 ft | 17 kts | 353° |
| 2026-04-27 18:01 | 54.64449 | 25.28628 | 617 ft | 11 kts | 351° |
| 2026-04-27 18:01 | 54.64502 | 25.28604 | 615 ft | 7 kts | 318° |
| 2026-04-27 18:02 | 54.64502 | 25.28519 | 615 ft | 8 kts | 256° |
| 2026-04-27 18:02 | 54.64487 | 25.28417 | 615 ft | 9 kts | 256° |
| 2026-04-27 18:02 | 54.64479 | 25.28359 | 622 ft | 4 kts | 256° |
| 2026-04-27 18:02 | 54.64475 | 25.28305 | 619 ft | 5 kts | 278° |
| 2026-04-27 18:03 | 54.64491 | 25.28252 | 620 ft | 5 kts | 283° |
| 2026-04-27 18:03 | 54.64491 | 25.28209 | 615 ft | 2 kts | 269° |
| 2026-04-27 18:03 | 54.64491 | 25.28194 | 615 ft | 1 kts | 270° |
| 2026-04-27 18:03 | 54.64491 | 25.28178 | 615 ft | 1 kts | 269° |
| 2026-04-27 18:04 | 54.64491 | 25.28173 | 615 ft | 0 kts | 270° |